createdAt,value
2018-04-29T00:00:33.334Z,91.90
2018-04-29T00:02:59.287Z,92.60
2018-04-29T00:05:25.999Z,93.50
2018-04-29T00:07:51.994Z,93.50
2018-04-29T00:10:18.069Z,92.50
2018-04-29T00:12:44.059Z,92.10
2018-04-29T00:15:10.346Z,92.60
2018-04-29T00:17:36.298Z,92.70
2018-04-29T00:20:02.271Z,92.50
2018-04-29T00:22:28.246Z,92.30
2018-04-29T00:24:54.233Z,91.40
2018-04-29T00:27:20.987Z,91.40
2018-04-29T00:29:47.700Z,91.90
2018-04-29T00:32:13.659Z,91.90
2018-04-29T00:34:39.618Z,92.40
2018-04-29T00:37:05.605Z,93.20
2018-04-29T00:39:31.561Z,93.30
2018-04-29T00:41:57.518Z,93.30
2018-04-29T00:44:24.265Z,93.60
2018-04-29T00:46:50.986Z,93.60
2018-04-29T00:49:17.075Z,93.60
2018-04-29T00:51:55.423Z,93.40
2018-04-29T00:54:21.441Z,93.30
2018-04-29T00:56:47.433Z,93.20
2018-04-29T00:59:14.142Z,93.00
2018-04-29T01:01:40.099Z,92.80
2018-04-29T01:04:06.068Z,92.90
2018-04-29T01:06:32.750Z,93.00
2018-04-29T01:08:59.035Z,93.00
2018-04-29T01:11:24.986Z,93.20
2018-04-29T01:13:50.954Z,93.20
2018-04-29T01:16:16.958Z,93.70
2018-04-29T01:18:43.666Z,93.20
2018-04-29T01:21:09.629Z,93.20
2018-04-29T01:23:35.581Z,93.40
2018-04-29T01:26:01.589Z,93.40
2018-04-29T01:28:27.560Z,93.10
2018-04-29T01:30:54.286Z,93.30
2018-04-29T01:33:20.286Z,93.20
2018-04-29T01:35:46.256Z,93.20
2018-04-29T01:38:12.226Z,93.10
2018-04-29T01:40:38.923Z,93.80
2018-04-29T01:43:04.891Z,93.70
2018-04-29T01:45:30.851Z,93.80
2018-04-29T01:47:57.578Z,93.90
2018-04-29T01:50:23.538Z,93.90
2018-04-29T01:52:50.260Z,94.00
2018-04-29T01:55:16.229Z,94.00
2018-04-29T01:57:42.926Z,93.80
2018-04-29T02:00:08.895Z,93.70
2018-04-29T02:02:34.851Z,93.60
2018-04-29T02:05:01.554Z,93.40
2018-04-29T02:07:27.503Z,93.40
2018-04-29T02:09:53.485Z,93.50
2018-04-29T02:12:19.509Z,93.60
2018-04-29T02:14:46.247Z,93.50
2018-04-29T02:17:12.957Z,93.20
2018-04-29T02:19:38.907Z,93.20
2018-04-29T02:22:04.870Z,93.20
2018-04-29T02:24:30.818Z,93.30
2018-04-29T02:26:57.525Z,93.20
2018-04-29T02:29:23.522Z,93.10
2018-04-29T02:31:49.486Z,93.40
2018-04-29T02:34:15.456Z,93.30
2018-04-29T02:36:41.416Z,93.30
2018-04-29T02:39:08.131Z,93.50
2018-04-29T02:41:34.083Z,93.50
2018-04-29T02:44:00.147Z,93.40
2018-04-29T02:46:26.846Z,93.20
2018-04-29T02:48:52.812Z,93.10
2018-04-29T02:51:18.806Z,93.20
2018-04-29T02:53:44.775Z,93.40
2018-04-29T02:56:10.738Z,93.60
2018-04-29T02:58:36.692Z,93.70
2018-04-29T03:01:02.678Z,93.30
2018-04-29T03:03:30.115Z,92.90
2018-04-29T03:05:56.090Z,92.90
2018-04-29T03:08:22.139Z,92.60
2018-04-29T03:10:48.941Z,92.80
2018-04-29T03:13:14.919Z,92.80
2018-04-29T03:15:41.610Z,93.20
2018-04-29T03:18:07.985Z,93.20
2018-04-29T03:20:34.311Z,93.10
2018-04-29T03:23:00.263Z,93.30
2018-04-29T03:25:26.257Z,93.30
2018-04-29T03:27:52.239Z,93.30
2018-04-29T03:30:18.230Z,93.50
2018-04-29T03:32:44.191Z,93.50
2018-04-29T03:35:10.161Z,93.30
2018-04-29T03:37:36.122Z,93.00
2018-04-29T03:40:02.826Z,92.60
2018-04-29T03:42:28.794Z,92.60
2018-04-29T03:44:54.750Z,92.80
2018-04-29T03:47:20.746Z,92.50
2018-04-29T03:49:46.768Z,92.60
2018-04-29T03:52:12.728Z,92.90
2018-04-29T03:54:40.171Z,93.20
2018-04-29T03:57:18.573Z,93.20
2018-04-29T03:59:56.966Z,93.20
2018-04-29T04:02:36.254Z,93.70
2018-04-29T04:05:02.170Z,93.40
2018-04-29T04:07:28.129Z,93.50
2018-04-29T04:09:54.099Z,93.30
2018-04-29T04:12:20.117Z,93.30
2018-04-29T04:14:46.077Z,93.40
2018-04-29T04:17:12.774Z,93.70
2018-04-29T04:19:38.725Z,93.40
2018-04-29T04:22:04.700Z,93.20
2018-04-29T04:24:30.659Z,93.20
2018-04-29T04:26:57.360Z,93.00
2018-04-29T04:29:23.305Z,93.00
2018-04-29T04:31:49.299Z,93.00
2018-04-29T04:34:15.637Z,92.60
2018-04-29T04:36:41.509Z,92.10
2018-04-29T04:39:22.444Z,91.90
2018-04-29T04:41:49.174Z,90.30
2018-04-29T04:44:15.137Z,90.30
2018-04-29T04:46:41.098Z,89.00
2018-04-29T04:49:07.574Z,89.50
2018-04-29T04:51:33.535Z,90.00
2018-04-29T04:54:00.389Z,88.90
2018-04-29T04:56:26.375Z,88.90
2018-04-29T04:58:52.365Z,87.90
2018-04-29T05:01:19.087Z,86.10
2018-04-29T05:03:45.038Z,86.10
2018-04-29T05:06:11.008Z,84.60
2018-04-29T05:08:36.970Z,83.80
2018-04-29T05:11:02.952Z,79.90
2018-04-29T05:13:29.670Z,71.60
2018-04-29T05:15:55.663Z,71.50
2018-04-29T05:18:21.646Z,66.20
2018-04-29T05:20:47.851Z,64.00
2018-04-29T05:23:13.830Z,64.30
2018-04-29T05:25:40.150Z,64.10
2018-04-29T05:28:06.131Z,65.60
2018-04-29T05:30:32.835Z,72.30
2018-04-29T05:32:58.804Z,71.80
2018-04-29T05:35:24.779Z,73.80
2018-04-29T05:37:51.573Z,77.10
2018-04-29T05:40:17.571Z,77.00
2018-04-29T05:42:43.534Z,78.10
2018-04-29T05:45:09.493Z,79.60
2018-04-29T05:47:35.442Z,82.70
2018-04-29T05:50:01.533Z,89.60
2018-04-29T05:52:27.498Z,96.00
2018-04-29T05:54:53.533Z,99.90
2018-04-29T05:57:19.520Z,99.90
2018-04-29T05:59:45.479Z,99.90
2018-04-29T06:02:11.454Z,99.90
2018-04-29T06:04:37.412Z,99.90
2018-04-29T06:07:04.123Z,99.90
2018-04-29T06:09:30.086Z,99.90
2018-04-29T06:11:56.047Z,99.90
2018-04-29T06:14:22.078Z,99.90
2018-04-29T06:16:48.063Z,99.90
2018-04-29T06:19:14.834Z,99.90
2018-04-29T06:21:40.790Z,99.90
2018-04-29T06:24:07.500Z,99.90
2018-04-29T06:26:33.441Z,99.90
2018-04-29T06:28:59.396Z,99.90
2018-04-29T06:31:25.371Z,99.90
2018-04-29T06:33:51.393Z,99.90
2018-04-29T06:36:17.396Z,97.00
2018-04-29T06:38:43.367Z,81.10
2018-04-29T06:41:10.117Z,60.70
2018-04-29T06:43:36.806Z,58.00
2018-04-29T06:46:02.782Z,58.40
2018-04-29T06:48:28.743Z,58.60
2018-04-29T06:50:54.707Z,65.40
2018-04-29T06:53:20.716Z,70.00
2018-04-29T06:55:46.747Z,71.40
2018-04-29T06:58:13.450Z,66.70
2018-04-29T07:00:39.410Z,66.90
2018-04-29T07:03:05.740Z,60.90
2018-04-29T07:05:32.704Z,48.80
2018-04-29T07:07:58.674Z,49.00
2018-04-29T07:10:24.642Z,46.10
2018-04-29T07:12:50.617Z,47.40
2018-04-29T07:15:17.359Z,57.20
2018-04-29T07:17:43.314Z,57.50
2018-04-29T07:20:10.038Z,65.90
2018-04-29T07:22:35.990Z,65.80
2018-04-29T07:25:01.967Z,70.80
2018-04-29T07:27:27.918Z,71.10
2018-04-29T07:29:53.879Z,79.90
2018-04-29T07:32:19.893Z,81.40
2018-04-29T07:34:45.882Z,80.20
2018-04-29T07:37:12.577Z,85.50
2018-04-29T07:39:38.531Z,85.40
2018-04-29T07:42:04.503Z,85.80
2018-04-29T07:44:31.201Z,85.80
2018-04-29T07:46:57.173Z,85.80
2018-04-29T07:49:23.140Z,87.40
2018-04-29T07:51:49.886Z,87.00
2018-04-29T07:54:16.642Z,77.40
2018-04-29T07:56:43.343Z,71.00
2018-04-29T07:59:09.302Z,70.90
2018-04-29T08:01:35.282Z,70.40
2018-04-29T08:04:02.266Z,69.50
2018-04-29T08:06:28.229Z,71.30
2018-04-29T08:08:54.178Z,72.70
2018-04-29T08:11:20.413Z,76.70
2018-04-29T08:13:46.369Z,79.00
2018-04-29T08:16:12.335Z,79.80
2018-04-29T08:18:38.304Z,82.40
2018-04-29T08:21:04.280Z,82.30
2018-04-29T08:23:30.233Z,85.00
2018-04-29T08:25:56.201Z,87.80
2018-04-29T08:28:22.191Z,89.60
2018-04-29T08:30:48.211Z,91.70
2018-04-29T08:33:14.922Z,93.30
2018-04-29T08:35:40.878Z,93.20
2018-04-29T08:38:07.725Z,94.90
2018-04-29T08:40:33.699Z,94.90
2018-04-29T08:42:59.669Z,95.10
2018-04-29T08:45:25.654Z,99.90
2018-04-29T08:47:52.432Z,99.90
2018-04-29T08:50:18.442Z,99.90
2018-04-29T08:52:44.387Z,99.90
2018-04-29T08:55:11.096Z,95.00
2018-04-29T08:57:37.059Z,94.90
2018-04-29T09:00:03.031Z,91.20
2018-04-29T09:02:28.993Z,92.40
2018-04-29T09:04:55.047Z,90.90
2018-04-29T09:07:21.091Z,84.60
2018-04-29T09:09:47.065Z,87.20
2018-04-29T09:12:13.049Z,83.80
2018-04-29T09:14:39.003Z,84.20
2018-04-29T09:17:04.973Z,85.90
2018-04-29T09:19:30.929Z,80.80
2018-04-29T09:21:56.965Z,84.30
2018-04-29T09:24:22.970Z,85.50
2018-04-29T09:26:49.714Z,87.20
2018-04-29T09:29:15.690Z,87.00
2018-04-29T09:31:41.655Z,85.80
2018-04-29T09:34:07.627Z,85.30
2018-04-29T09:36:34.323Z,83.60
2018-04-29T09:39:00.294Z,83.50
2018-04-29T09:41:26.272Z,84.10
2018-04-29T09:43:52.264Z,80.80
2018-04-29T09:46:18.366Z,81.40
2018-04-29T09:48:44.350Z,84.60
2018-04-29T09:51:10.294Z,84.60
2018-04-29T09:53:36.982Z,86.20
2018-04-29T09:56:02.970Z,86.20
2018-04-29T09:58:29.662Z,82.70
2018-04-29T10:00:56.656Z,82.70
2018-04-29T10:03:22.668Z,82.80
2018-04-29T10:05:48.684Z,84.50
2018-04-29T10:08:14.939Z,84.40
2018-04-29T10:10:40.911Z,84.20
2018-04-29T10:13:07.614Z,79.50
2018-04-29T10:15:33.607Z,79.40
2018-04-29T10:17:59.571Z,77.30
2018-04-29T10:20:25.574Z,77.90
2018-04-29T10:22:52.891Z,76.10
2018-04-29T10:25:18.893Z,76.30
2018-04-29T10:27:45.606Z,77.30
2018-04-29T10:30:11.566Z,77.20
2018-04-29T10:32:37.538Z,77.00
2018-04-29T10:35:03.523Z,78.30
2018-04-29T10:37:29.491Z,79.70
2018-04-29T10:39:56.438Z,78.90
2018-04-29T10:42:22.479Z,78.90
2018-04-29T10:44:49.653Z,77.80
2018-04-29T10:47:15.666Z,77.80
2018-04-29T10:49:41.623Z,77.60
2018-04-29T10:52:08.330Z,78.10
2018-04-29T10:54:34.318Z,78.00
2018-04-29T10:57:00.800Z,78.30
2018-04-29T10:59:28.297Z,78.40
2018-04-29T11:01:54.368Z,78.30
2018-04-29T11:04:21.193Z,77.00
2018-04-29T11:06:47.243Z,76.90
2018-04-29T11:09:13.945Z,75.20
2018-04-29T11:11:39.973Z,75.20
2018-04-29T11:14:05.881Z,77.10
2018-04-29T11:16:32.613Z,75.40
2018-04-29T11:18:58.567Z,75.40
2018-04-29T11:21:25.294Z,74.60
2018-04-29T11:23:52.148Z,74.60
2018-04-29T11:26:18.978Z,76.20
2018-04-29T11:28:44.961Z,76.20
2018-04-29T11:31:11.668Z,76.00
2018-04-29T11:33:37.650Z,76.00
2018-04-29T11:36:04.361Z,78.50
2018-04-29T11:38:30.339Z,77.90
2018-04-29T11:40:57.058Z,76.50
2018-04-29T11:43:23.062Z,76.60
2018-04-29T11:45:49.099Z,76.00
2018-04-29T11:48:15.771Z,76.70
2018-04-29T11:50:41.743Z,76.70
2018-04-29T11:53:08.443Z,74.40
2018-04-29T11:55:34.434Z,74.30
2018-04-29T11:58:01.443Z,76.30
2018-04-29T12:00:27.801Z,76.20
2018-04-29T12:02:53.797Z,75.90
2018-04-29T12:05:19.786Z,76.80
2018-04-29T12:07:45.757Z,75.70
2018-04-29T12:10:11.722Z,76.10
2018-04-29T12:12:37.965Z,75.30
2018-04-29T12:15:03.943Z,73.90
2018-04-29T12:17:30.057Z,74.70
2018-04-29T12:19:56.033Z,74.00
2018-04-29T12:22:22.814Z,74.50
2018-04-29T12:24:48.841Z,74.50
2018-04-29T12:27:14.815Z,73.50
2018-04-29T12:29:40.787Z,73.20
2018-04-29T12:32:07.541Z,72.50
2018-04-29T12:34:34.248Z,73.10
2018-04-29T12:37:00.208Z,73.10
2018-04-29T12:39:26.198Z,73.10
2018-04-29T12:41:52.677Z,72.60
2018-04-29T12:44:18.689Z,71.80
2018-04-29T12:46:44.774Z,71.70
2018-04-29T12:49:10.683Z,72.00
2018-04-29T12:51:36.658Z,73.10
2018-04-29T12:54:03.426Z,72.40
2018-04-29T12:56:29.400Z,72.20
2018-04-29T12:58:55.442Z,72.00
2018-04-29T13:01:21.463Z,70.90
2018-04-29T13:03:47.521Z,70.90
2018-04-29T13:06:13.485Z,71.50
2018-04-29T13:08:40.230Z,70.50
2018-04-29T13:11:06.224Z,70.50
2018-04-29T13:13:32.198Z,69.80
2018-04-29T13:15:58.170Z,70.80
2018-04-29T13:18:24.170Z,70.50
2018-04-29T13:20:50.181Z,69.80
2018-04-29T13:23:16.134Z,70.40
2018-04-29T13:25:42.271Z,70.40
2018-04-29T13:28:09.278Z,71.10
2018-04-29T13:30:35.309Z,71.00
2018-04-29T13:33:01.306Z,70.60
2018-04-29T13:35:27.294Z,70.50
2018-04-29T13:37:53.312Z,70.40
2018-04-29T13:40:20.047Z,70.40
2018-04-29T13:42:47.259Z,70.70
2018-04-29T13:45:13.217Z,70.70
2018-04-29T13:47:39.174Z,69.60
2018-04-29T13:50:05.142Z,70.00
2018-04-29T13:52:31.097Z,70.80
2018-04-29T13:54:57.406Z,70.90
2018-04-29T13:57:24.110Z,69.60
2018-04-29T13:59:50.220Z,69.50
2018-04-29T14:02:16.191Z,70.00
2018-04-29T14:04:42.155Z,69.80
2018-04-29T14:07:08.964Z,70.00
2018-04-29T14:09:35.642Z,69.70
2018-04-29T14:12:01.659Z,69.60
2018-04-29T14:14:27.650Z,69.00
2018-04-29T14:16:53.638Z,69.90
2018-04-29T14:19:19.649Z,70.20
2018-04-29T14:21:45.889Z,68.90
2018-04-29T14:24:11.866Z,69.40
2018-04-29T14:26:37.826Z,69.80
2018-04-29T14:29:04.539Z,69.40
2018-04-29T14:31:30.499Z,69.40
2018-04-29T14:33:57.218Z,69.90
2018-04-29T14:36:23.280Z,69.60
2018-04-29T14:38:49.303Z,70.20
2018-04-29T14:41:15.265Z,70.00
2018-04-29T14:43:41.966Z,69.20
2018-04-29T14:46:07.962Z,69.10
2018-04-29T14:48:34.674Z,69.80
2018-04-29T14:51:00.617Z,69.70
2018-04-29T14:53:28.065Z,69.60
2018-04-29T14:55:54.120Z,69.70
2018-04-29T14:58:20.808Z,70.60
2018-04-29T15:00:47.593Z,69.60
2018-04-29T15:03:13.554Z,69.60
2018-04-29T15:05:39.510Z,68.80
2018-04-29T15:08:05.725Z,69.00
2018-04-29T15:10:31.761Z,68.80
2018-04-29T15:12:57.714Z,68.70
2018-04-29T15:15:23.732Z,68.80
2018-04-29T15:17:49.757Z,69.10
2018-04-29T15:20:15.753Z,68.80
2018-04-29T15:22:42.454Z,68.30
2018-04-29T15:25:08.436Z,68.20
2018-04-29T15:27:35.139Z,68.20
2018-04-29T15:30:01.119Z,68.10
2018-04-29T15:32:27.820Z,68.50
2018-04-29T15:34:53.806Z,68.50
2018-04-29T15:37:19.783Z,68.00
2018-04-29T15:39:45.735Z,67.90
2018-04-29T15:42:11.706Z,68.30
2018-04-29T15:44:37.678Z,67.60
2018-04-29T15:47:03.798Z,66.40
2018-04-29T15:49:29.800Z,65.60
2018-04-29T15:51:55.782Z,65.00
2018-04-29T15:54:21.817Z,66.30
2018-04-29T15:56:48.082Z,66.00
2018-04-29T15:59:14.588Z,66.20
2018-04-29T16:01:41.298Z,63.80
2018-04-29T16:04:07.259Z,63.70
2018-04-29T16:06:33.662Z,64.60
2018-04-29T16:08:59.630Z,65.50
2018-04-29T16:11:25.603Z,65.80
2018-04-29T16:13:51.773Z,63.40
2018-04-29T16:16:17.821Z,65.20
2018-04-29T16:18:43.787Z,65.80
2018-04-29T16:21:11.460Z,62.50
2018-04-29T16:23:37.468Z,63.10
2018-04-29T16:26:03.434Z,62.60
2018-04-29T16:28:29.431Z,62.40
2018-04-29T16:31:02.345Z,61.90
2018-04-29T16:33:28.310Z,61.70
2018-04-29T16:35:54.307Z,61.10
2018-04-29T16:38:20.401Z,61.10
2018-04-29T16:40:46.290Z,61.00
2018-04-29T16:43:12.263Z,60.90
2018-04-29T16:45:38.960Z,61.80
2018-04-29T16:48:04.926Z,61.70
2018-04-29T16:50:30.903Z,62.30
2018-04-29T16:52:56.883Z,63.50
2018-04-29T16:55:22.909Z,64.20
2018-04-29T16:57:48.952Z,65.00
2018-04-29T17:00:14.901Z,66.20
2018-04-29T17:02:40.850Z,67.20
2018-04-29T17:05:07.563Z,68.40
2018-04-29T17:07:33.655Z,68.30
2018-04-29T17:10:00.358Z,70.10
2018-04-29T17:12:26.341Z,69.50
2018-04-29T17:14:53.249Z,70.50
2018-04-29T17:17:19.330Z,70.40
2018-04-29T17:19:46.069Z,70.70
2018-04-29T17:22:12.020Z,70.70
2018-04-29T17:24:38.714Z,71.10
2018-04-29T17:27:04.882Z,71.10
2018-04-29T17:29:30.837Z,70.90
2018-04-29T17:31:57.526Z,72.40
2018-04-29T17:34:23.614Z,72.40
2018-04-29T17:36:50.286Z,73.70
2018-04-29T17:39:17.087Z,73.90
2018-04-29T17:41:43.101Z,73.90
2018-04-29T17:44:09.142Z,74.60
2018-04-29T17:46:35.014Z,75.00
2018-04-29T17:49:01.666Z,75.30
2018-04-29T17:51:27.623Z,75.60
2018-04-29T17:53:53.594Z,75.60
2018-04-29T17:56:19.754Z,75.60
2018-04-29T17:58:45.720Z,75.50
2018-04-29T18:01:11.686Z,75.60
2018-04-29T18:03:38.427Z,74.70
2018-04-29T18:06:04.394Z,74.70
2018-04-29T18:08:30.358Z,74.60
2018-04-29T18:10:56.375Z,74.20
2018-04-29T18:13:22.444Z,74.70
2018-04-29T18:15:48.460Z,73.70
2018-04-29T18:18:14.448Z,74.00
2018-04-29T18:20:41.141Z,73.70
2018-04-29T18:23:07.111Z,73.70
2018-04-29T18:25:33.707Z,73.10
2018-04-29T18:27:59.657Z,73.10
2018-04-29T18:30:25.763Z,72.90
2018-04-29T18:32:52.532Z,72.60
2018-04-29T18:35:18.538Z,72.70
2018-04-29T18:37:45.273Z,72.50
2018-04-29T18:40:11.282Z,72.40
2018-04-29T18:42:37.239Z,72.40
2018-04-29T18:45:03.210Z,72.30
2018-04-29T18:47:29.982Z,71.30
2018-04-29T18:49:55.950Z,71.20
2018-04-29T18:52:21.959Z,70.80
2018-04-29T18:54:48.018Z,70.30
2018-04-29T18:57:13.970Z,70.00
2018-04-29T18:59:39.933Z,69.90
2018-04-29T19:02:05.983Z,69.80
2018-04-29T19:04:32.687Z,69.50
2018-04-29T19:06:58.642Z,69.50
2018-04-29T19:09:24.680Z,69.50
2018-04-29T19:11:52.256Z,70.00
2018-04-29T19:14:18.236Z,70.00
2018-04-29T19:16:44.233Z,70.00
2018-04-29T19:19:10.190Z,70.10
2018-04-29T19:21:36.898Z,70.30
2018-04-29T19:24:03.017Z,70.20
2018-04-29T19:26:28.973Z,70.10
2018-04-29T19:28:54.941Z,70.10
2018-04-29T19:31:21.427Z,69.80
2018-04-29T19:33:47.428Z,69.90
2018-04-29T19:36:13.610Z,69.80
2018-04-29T19:38:39.849Z,70.00
2018-04-29T19:41:06.086Z,69.90
2018-04-29T19:43:32.053Z,69.70
2018-04-29T19:45:58.052Z,69.70
2018-04-29T19:48:24.045Z,69.40
2018-04-29T19:50:50.071Z,69.50
2018-04-29T19:53:16.175Z,69.50
2018-04-29T19:55:42.139Z,69.20
2018-04-29T19:58:08.094Z,69.10
2018-04-29T20:00:34.111Z,69.00
2018-04-29T20:03:00.067Z,69.60
2018-04-29T20:05:26.774Z,69.60
2018-04-29T20:07:52.771Z,69.50
2018-04-29T20:10:19.556Z,69.70
2018-04-29T20:12:45.523Z,69.70
2018-04-29T20:15:11.469Z,69.40
2018-04-29T20:17:37.417Z,69.20
2018-04-29T20:20:04.118Z,68.90
2018-04-29T20:22:30.129Z,68.70
2018-04-29T20:24:56.081Z,68.50
2018-04-29T20:27:22.085Z,68.10
2018-04-29T20:29:49.145Z,68.10
2018-04-29T20:32:26.491Z,68.10
2018-04-29T20:34:52.659Z,68.00
2018-04-29T20:37:18.770Z,67.70
2018-04-29T20:39:44.738Z,67.90
2018-04-29T20:42:10.729Z,68.00
2018-04-29T20:44:36.716Z,68.50
2018-04-29T20:47:02.673Z,67.60
2018-04-29T20:49:28.651Z,67.60
2018-04-29T20:51:54.638Z,67.70
2018-04-29T20:54:21.394Z,67.40
2018-04-29T20:56:48.199Z,67.60
2018-04-29T20:59:14.183Z,67.60
2018-04-29T21:01:40.889Z,67.60
2018-04-29T21:04:06.891Z,67.60
2018-04-29T21:06:32.853Z,67.80
2018-04-29T21:08:58.818Z,68.00
2018-04-29T21:11:26.066Z,68.10
2018-04-29T21:13:52.071Z,68.10
2018-04-29T21:16:18.064Z,68.20
2018-04-29T21:18:44.770Z,68.10
2018-04-29T21:21:10.998Z,68.10
2018-04-29T21:23:36.959Z,68.00
2018-04-29T21:26:03.097Z,68.10
2018-04-29T21:28:29.314Z,67.70
2018-04-29T21:30:55.290Z,67.70
2018-04-29T21:33:21.353Z,67.50
2018-04-29T21:35:48.107Z,67.40
2018-04-29T21:38:15.110Z,67.60
2018-04-29T21:40:41.084Z,67.60
2018-04-29T21:43:07.035Z,67.90
2018-04-29T21:45:32.999Z,67.60
2018-04-29T21:47:58.989Z,67.10
2018-04-29T21:50:24.948Z,66.70
2018-04-29T21:52:51.695Z,66.20
2018-04-29T21:55:18.422Z,66.50
2018-04-29T21:57:44.382Z,66.50
2018-04-29T22:00:11.087Z,66.10
2018-04-29T22:02:37.084Z,66.00
2018-04-29T22:05:03.072Z,66.00
2018-04-29T22:07:29.025Z,65.60
2018-04-29T22:09:54.999Z,65.60
2018-04-29T22:12:21.033Z,66.30
2018-04-29T22:14:46.998Z,65.70
2018-04-29T22:17:12.976Z,65.90
2018-04-29T22:19:39.702Z,66.60
2018-04-29T22:22:05.675Z,66.50
2018-04-29T22:24:32.419Z,67.10
2018-04-29T22:26:59.112Z,67.40
2018-04-29T22:29:25.071Z,67.40
2018-04-29T22:31:51.219Z,67.90
2018-04-29T22:34:17.173Z,68.50
2018-04-29T22:36:43.132Z,68.80
2018-04-29T22:39:09.106Z,68.70
2018-04-29T22:41:35.054Z,68.70
2018-04-29T22:44:01.005Z,68.80
2018-04-29T22:46:26.985Z,68.20
2018-04-29T22:48:52.993Z,67.60
2018-04-29T22:51:19.703Z,67.80
2018-04-29T22:53:45.846Z,67.80
2018-04-29T22:56:11.810Z,67.20
2018-04-29T22:58:37.753Z,66.80
2018-04-29T23:01:04.467Z,67.20
2018-04-29T23:03:30.422Z,67.20
2018-04-29T23:05:56.392Z,67.00
2018-04-29T23:08:22.412Z,67.70
2018-04-29T23:10:49.904Z,68.60
2018-04-29T23:13:15.867Z,68.50
2018-04-29T23:15:41.849Z,68.30
2018-04-29T23:18:08.858Z,69.00
2018-04-29T23:20:34.823Z,69.00
2018-04-29T23:23:01.671Z,70.20
2018-04-29T23:25:27.648Z,70.20
2018-04-29T23:27:54.351Z,72.00
2018-04-29T23:30:20.418Z,72.00
2018-04-29T23:32:46.399Z,71.20
2018-04-29T23:35:12.366Z,71.20
2018-04-29T23:37:38.359Z,72.00
2018-04-29T23:40:04.318Z,72.40
2018-04-29T23:42:30.283Z,72.90
2018-04-29T23:44:56.298Z,73.50
2018-04-29T23:47:22.278Z,74.90
2018-04-29T23:49:49.016Z,77.20
2018-04-29T23:52:15.019Z,76.80
2018-04-29T23:54:40.976Z,78.30
2018-04-29T23:57:06.938Z,79.30
2018-04-29T23:59:33.647Z,81.30
